Time;durP1;ratioP1;P1;durP2;ratioP2;P2;SDS_P1;SDS_P2;PMS_P1;PMS_P2;Temp;Humidity;BMP_temperature;BMP_pressure;BME280_temperature;BME280_humidity;BME280_pressure;Samples;Min_cycle;Max_cycle;Signal;HPM_P1;HPM_P2
2021/10/28 00:12:13;;;;;;;25.85;16.60;;;11.90;85.20;;;;;;4941948;28;92628;-92
2021/10/28 00:13:01;;;;;;;22.15;15.93;;;11.80;85.30;;;;;;4959037;28;92473;-92
2021/10/28 00:15:34;;;;;;;24.80;15.18;;;11.70;85.40;;;;;;4942919;28;96407;-92
2021/10/28 00:20:31;;;;;;;27.92;16.77;;;11.70;85.70;;;;;;4941700;28;92316;-92
2021/10/28 00:22:58;;;;;;;23.40;15.93;;;11.70;85.60;;;;;;4924769;28;101453;-92
2021/10/28 00:25:25;;;;;;;23.17;16.13;;;11.70;85.70;;;;;;4908145;28;96314;-93
2021/10/28 00:27:52;;;;;;;23.23;14.68;;;11.70;85.50;;;;;;4925316;28;95917;-92
2021/10/28 00:30:19;;;;;;;25.55;15.85;;;11.70;85.60;;;;;;4909107;28;92494;-92
2021/10/28 00:32:47;;;;;;;22.73;16.55;;;11.70;85.70;;;;;;4908939;28;92367;-93
2021/10/28 00:35:14;;;;;;;25.17;16.70;;;11.70;85.80;;;;;;4923770;28;98653;-93
2021/10/28 00:37:42;;;;;;;26.67;16.58;;;11.70;85.70;;;;;;4908856;28;97803;-92
2021/10/28 00:40:10;;;;;;;26.80;18.30;;;11.60;85.70;;;;;;4925044;28;92237;-92
2021/10/28 00:42:38;;;;;;;26.70;16.45;;;11.60;85.60;;;;;;4925016;28;92589;-93
2021/10/28 00:45:07;;;;;;;27.67;16.15;;;11.60;85.60;;;;;;4940958;28;95977;-92
2021/10/28 00:47:34;;;;;;;21.83;16.63;;;11.60;85.40;;;;;;4924211;28;114776;-92
2021/10/28 00:50:02;;;;;;;24.30;16.63;;;11.60;85.50;;;;;;4925072;28;92354;-93
2021/10/28 00:52:29;;;;;;;24.30;16.23;;;11.60;85.80;;;;;;4925350;28;91781;-93
2021/10/28 00:54:56;;;;;;;25.08;17.27;;;11.50;85.80;;;;;;4924742;28;95194;-93
2021/10/28 00:57:24;;;;;;;24.90;16.42;;;11.50;85.90;;;;;;4924262;28;96109;-92
2021/10/28 00:59:51;;;;;;;25.00;16.05;;;11.50;86.00;;;;;;4907942;28;94620;-92
2021/10/28 01:02:19;;;;;;;25.67;16.40;;;11.50;86.50;;;;;;4957140;28;92470;-93
2021/10/28 01:04:46;;;;;;;26.58;16.10;;;11.50;85.90;;;;;;4924268;28;95944;-92
2021/10/28 01:07:13;;;;;;;23.70;16.30;;;11.40;85.90;;;;;;4924705;28;96037;-92
2021/10/28 01:13:23;;;;;;;24.80;16.02;;;11.40;85.80;;;;;;4940664;28;92409;-92
2021/10/28 01:15:55;;;;;;;22.02;15.98;;;11.40;86.20;;;;;;4940158;28;96043;-92
2021/10/28 01:18:23;;;;;;;28.30;17.50;;;11.40;86.20;;;;;;4940854;28;94298;-92
2021/10/28 01:20:53;;;;;;;25.25;17.85;;;11.30;86.20;;;;;;4940460;28;92194;-91
2021/10/28 01:23:23;;;;;;;26.77;16.70;;;11.30;86.10;;;;;;4940753;28;92582;-92
2021/10/28 01:25:53;;;;;;;25.88;16.40;;;11.30;86.10;;;;;;4923160;28;98312;-93
2021/10/28 01:28:21;;;;;;;25.38;16.88;;;11.30;86.10;;;;;;4924195;28;97892;-92
2021/10/28 01:30:50;;;;;;;23.98;16.52;;;11.30;86.10;;;;;;4924213;28;92378;-92
2021/10/28 01:33:18;;;;;;;24.80;16.25;;;11.20;86.50;;;;;;4940665;28;92526;-93
2021/10/28 01:35:46;;;;;;;25.27;16.73;;;11.30;86.50;;;;;;4923728;28;96209;-92
2021/10/28 01:38:15;;;;;;;23.95;16.40;;;11.20;86.70;;;;;;4924009;28;95404;-93
2021/10/28 01:40:56;;;;;;;25.30;16.45;;;11.20;86.90;;;;;;4924278;28;92328;-92
2021/10/28 01:43:23;;;;;;;25.35;16.60;;;11.20;86.90;;;;;;4940837;28;91675;-92
2021/10/28 01:45:50;;;;;;;29.42;16.88;;;11.20;87.00;;;;;;4956259;28;95698;-92
2021/10/28 01:48:18;;;;;;;27.30;17.55;;;11.20;86.60;;;;;;4923928;28;95629;-92
2021/10/28 01:50:46;;;;;;;24.65;17.55;;;11.20;86.40;;;;;;4922935;28;94791;-92
2021/10/28 01:53:15;;;;;;;27.48;17.10;;;11.20;86.50;;;;;;4924078;28;92575;-92
2021/10/28 01:59:49;;;;;;;30.40;17.60;;;11.20;86.10;;;;;;4939735;28;96776;-92
2021/10/28 02:02:16;;;;;;;27.00;17.77;;;11.10;86.50;;;;;;4924173;28;92372;-92
2021/10/28 02:16:42;;;;;;;24.35;16.70;;;11.00;87.10;;;;;;4939758;28;92503;-93
2021/10/28 02:19:10;;;;;;;24.92;15.85;;;10.90;87.50;;;;;;4923673;28;92566;-92
2021/10/28 02:21:37;;;;;;;22.77;16.52;;;11.00;87.40;;;;;;4906085;28;98327;-92
2021/10/28 02:24:04;;;;;;;28.80;18.25;;;11.00;87.10;;;;;;4923525;28;98276;-93
2021/10/28 02:26:32;;;;;;;29.90;18.67;;;11.00;86.90;;;;;;4923460;28;92293;-92
2021/10/28 02:28:59;;;;;;;24.90;16.60;;;11.00;87.00;;;;;;4923433;28;92470;-92
2021/10/28 02:31:26;;;;;;;27.45;16.98;;;11.00;87.00;;;;;;4891539;28;96288;-92
2021/10/28 02:33:53;;;;;;;30.52;17.65;;;11.00;86.80;;;;;;4923221;28;95390;-92
2021/10/28 02:36:20;;;;;;;24.38;17.95;;;11.00;87.00;;;;;;4907639;28;92273;-92
2021/10/28 02:38:47;;;;;;;25.20;17.05;;;11.00;87.00;;;;;;4923684;28;91541;-92
2021/10/28 02:41:16;;;;;;;26.70;17.48;;;11.00;87.00;;;;;;4939500;28;93514;-92
2021/10/28 02:43:43;;;;;;;22.17;15.07;;;11.00;87.10;;;;;;4939136;28;95575;-92
2021/10/28 02:46:10;;;;;;;25.27;16.13;;;10.90;87.30;;;;;;4906299;28;94598;-92
2021/10/28 02:48:38;;;;;;;26.25;17.10;;;11.00;87.10;;;;;;4926477;28;92499;-92
2021/10/28 02:51:05;;;;;;;24.55;15.82;;;11.00;87.20;;;;;;4894512;28;96125;-91
2021/10/28 02:53:35;;;;;;;27.17;17.08;;;10.90;87.00;;;;;;4910289;28;96025;-93
2021/10/28 02:56:02;;;;;;;22.90;15.90;;;11.00;87.00;;;;;;4910342;28;92364;-92
2021/10/28 02:58:29;;;;;;;23.23;15.57;;;11.00;87.00;;;;;;4909838;28;92592;-92
2021/10/28 03:00:56;;;;;;;24.27;14.43;;;11.00;87.10;;;;;;4941927;28;95909;-92
2021/10/28 03:03:24;;;;;;;25.67;15.35;;;11.00;87.20;;;;;;4926419;28;95540;-92
2021/10/28 03:05:51;;;;;;;22.90;16.33;;;11.00;86.80;;;;;;4926102;28;92433;-92
2021/10/28 03:08:18;;;;;;;19.75;14.50;;;10.90;86.60;;;;;;4911760;28;92336;-92
2021/10/28 03:10:45;;;;;;;23.00;16.00;;;10.90;86.90;;;;;;4941461;28;94767;-92
2021/10/28 03:13:16;;;;;;;21.48;15.60;;;10.90;86.80;;;;;;4926352;28;98321;-92
2021/10/28 03:15:43;;;;;;;19.48;15.00;;;10.90;86.70;;;;;;4927173;28;92215;-92
2021/10/28 03:26:32;;;;;;;22.63;14.95;;;10.80;86.60;;;;;;4915178;28;92262;-92
2021/10/28 03:28:59;;;;;;;23.80;14.77;;;10.80;87.30;;;;;;4926636;28;91842;-93
2021/10/28 03:31:26;;;;;;;22.35;15.70;;;10.80;86.60;;;;;;4909978;28;94668;-92
2021/10/28 03:33:55;;;;;;;23.58;13.98;;;10.80;86.60;;;;;;4926127;28;98868;-92
2021/10/28 03:39:13;;;;;;;21.80;14.20;;;10.70;86.70;;;;;;4928223;28;92466;-92
2021/10/28 03:41:57;;;;;;;21.33;14.50;;;10.70;87.00;;;;;;4927473;28;93448;-92
2021/10/28 04:30:11;;;;;;;19.95;15.10;;;10.40;87.40;;;;;;4913143;28;94649;-93
2021/10/28 04:32:39;;;;;;;20.98;14.45;;;10.30;87.30;;;;;;4925218;28;92557;-92
2021/10/28 04:35:08;;;;;;;20.42;14.85;;;10.40;87.10;;;;;;4909530;28;95665;-92
2021/10/28 04:37:38;;;;;;;23.63;15.07;;;10.40;87.30;;;;;;4941251;28;94410;-92
2021/10/28 04:40:06;;;;;;;22.45;14.98;;;10.40;87.50;;;;;;4941178;28;92486;-92
2021/10/28 04:42:34;;;;;;;21.77;14.55;;;10.40;87.40;;;;;;4925370;28;92551;-92
2021/10/28 04:45:01;;;;;;;22.40;15.45;;;10.40;87.70;;;;;;4924914;28;95410;-92
2021/10/28 04:47:28;;;;;;;24.85;16.00;;;10.40;87.10;;;;;;4925352;28;96236;-92
2021/10/28 04:49:55;;;;;;;31.20;24.58;;;10.40;87.00;;;;;;4908863;28;103418;-92
2021/10/28 04:52:22;;;;;;;28.70;19.00;;;10.40;87.20;;;;;;4925046;28;92664;-92
2021/10/28 04:54:52;;;;;;;30.88;20.30;;;10.40;87.00;;;;;;4956228;28;95950;-92
2021/10/28 04:57:19;;;;;;;32.85;29.60;;;10.40;86.50;;;;;;4924924;28;98125;-92
2021/10/28 04:59:47;;;;;;;45.42;38.70;;;10.30;87.00;;;;;;4940707;28;92395;-92
2021/10/28 05:02:14;;;;;;;24.50;18.10;;;10.30;87.10;;;;;;4909013;28;92371;-91
2021/10/28 05:04:41;;;;;;;23.38;17.02;;;10.30;87.00;;;;;;4908960;28;95656;-92
2021/10/28 05:07:08;;;;;;;27.85;20.35;;;10.20;86.60;;;;;;4908692;28;95767;-92
2021/10/28 05:09:40;;;;;;;25.80;16.58;;;10.20;86.40;;;;;;4908387;28;92373;-92
2021/10/28 05:12:07;;;;;;;28.48;16.40;;;10.20;86.80;;;;;;4925952;28;91787;-92
2021/10/28 05:14:35;;;;;;;28.15;17.98;;;10.10;86.80;;;;;;4925158;28;92301;-92
2021/10/28 05:17:02;;;;;;;23.00;17.08;;;10.10;86.80;;;;;;4924437;28;94435;-92
2021/10/28 05:19:31;;;;;;;25.83;17.65;;;10.10;86.90;;;;;;4923533;28;94758;-92
2021/10/28 05:21:58;;;;;;;25.02;16.65;;;10.00;86.60;;;;;;4924603;28;92477;-92
2021/10/28 05:24:25;;;;;;;25.92;16.73;;;10.00;86.70;;;;;;4924448;28;94839;-92
2021/10/28 05:26:53;;;;;;;26.50;17.13;;;10.00;86.60;;;;;;4908916;28;95592;-92
2021/10/28 05:29:20;;;;;;;26.30;16.17;;;10.00;86.60;;;;;;4940727;28;92462;-92
2021/10/28 05:31:47;;;;;;;30.38;17.60;;;9.90;86.40;;;;;;4924630;28;92517;-92
2021/10/28 05:34:14;;;;;;;25.90;17.52;;;9.90;86.80;;;;;;4908081;28;96346;-92
2021/10/28 05:36:42;;;;;;;27.98;18.60;;;9.90;86.60;;;;;;4908599;28;95659;-92
2021/10/28 05:39:09;;;;;;;29.05;17.10;;;9.90;86.40;;;;;;4940327;28;92401;-92
2021/10/28 05:41:36;;;;;;;27.13;18.10;;;9.90;86.70;;;;;;4908856;28;92598;-92
2021/10/28 05:44:03;;;;;;;30.88;18.08;;;9.80;86.80;;;;;;4922846;28;97009;-92
2021/10/28 05:46:30;;;;;;;28.83;17.15;;;9.80;86.80;;;;;;4940201;28;97123;-92
2021/10/28 05:48:57;;;;;;;25.95;17.23;;;9.80;86.70;;;;;;4940397;28;92404;-92
2021/10/28 05:51:25;;;;;;;30.73;18.50;;;9.80;87.00;;;;;;4908393;28;92649;-92
2021/10/28 05:53:53;;;;;;;30.08;18.83;;;9.70;87.00;;;;;;4924191;28;96264;-92
2021/10/28 05:56:20;;;;;;;30.70;18.65;;;9.70;87.30;;;;;;4924168;28;95769;-92
2021/10/28 05:58:47;;;;;;;29.90;19.83;;;9.70;87.00;;;;;;4907546;28;92408;-92
2021/10/28 06:01:14;;;;;;;29.27;17.80;;;9.70;87.10;;;;;;4940432;28;91754;-92
2021/10/28 06:03:41;;;;;;;32.75;20.10;;;9.60;87.30;;;;;;4907988;28;95691;-92
2021/10/28 06:06:08;;;;;;;30.10;19.27;;;9.70;87.90;;;;;;4907880;28;95897;-91
2021/10/28 06:08:36;;;;;;;41.13;24.05;;;9.60;87.40;;;;;;4939074;28;94956;-91
2021/10/28 06:11:03;;;;;;;141.30;84.40;;;9.60;87.30;;;;;;4923872;28;92444;-91
2021/10/28 06:13:30;;;;;;;39.85;27.65;;;9.60;87.30;;;;;;4907301;28;104752;-91
2021/10/28 06:15:58;;;;;;;63.60;42.35;;;9.60;87.10;;;;;;4923664;28;95737;-92
2021/10/28 06:20:55;;;;;;;48.30;33.75;;;9.60;87.90;;;;;;4908290;28;92574;-92
2021/10/28 06:23:22;;;;;;;39.05;26.70;;;9.60;87.30;;;;;;4906991;28;92222;-92
2021/10/28 06:25:49;;;;;;;43.65;34.10;;;9.60;87.70;;;;;;4907712;28;95637;-91
2021/10/28 06:28:16;;;;;;;39.35;28.65;;;9.60;87.80;;;;;;4923769;28;92537;-92
2021/10/28 06:30:43;;;;;;;36.05;23.85;;;9.60;87.70;;;;;;4892934;28;92572;-92
2021/10/28 06:33:15;;;;;;;38.65;24.17;;;9.60;87.80;;;;;;4906601;28;98105;-92
2021/10/28 06:35:43;;;;;;;34.30;23.08;;;9.60;87.90;;;;;;4924113;28;98001;-92
2021/10/28 06:38:10;;;;;;;40.78;23.83;;;9.70;88.00;;;;;;4907528;28;103228;-92
2021/10/28 06:40:38;;;;;;;45.05;25.63;;;9.70;87.70;;;;;;4916833;28;92635;-92
2021/10/28 06:43:05;;;;;;;39.85;23.75;;;9.70;87.90;;;;;;4923986;28;93301;-92
2021/10/28 06:45:33;;;;;;;34.03;20.55;;;9.70;87.40;;;;;;4923015;28;95939;-92
2021/10/28 06:48:01;;;;;;;35.20;21.77;;;9.70;87.40;;;;;;4923348;28;92355;-92
2021/10/28 06:50:33;;;;;;;36.67;21.63;;;9.70;87.80;;;;;;4939962;28;91760;-92
2021/10/28 06:53:22;;;;;;;34.88;21.73;;;9.80;87.70;;;;;;4923569;28;95464;-92
2021/10/28 06:56:07;;;;;;;33.80;21.45;;;9.80;87.00;;;;;;4926036;28;93488;-92
2021/10/28 07:04:06;;;;;;;40.40;20.70;;;9.80;87.20;;;;;;4939017;28;96077;-92
2021/10/28 07:06:38;;;;;;;26.88;18.33;;;9.80;87.40;;;;;;4923832;28;97909;-92
2021/10/28 07:09:28;;;;;;;32.65;18.92;;;9.80;87.00;;;;;;4923750;28;92984;-92
2021/10/28 07:12:11;;;;;;;29.15;21.75;;;9.90;86.90;;;;;;4939337;28;92472;-92
2021/10/28 07:14:41;;;;;;;43.58;39.47;;;9.90;86.90;;;;;;4910463;28;95982;-90
2021/10/28 07:32:41;;;;;;;24.30;19.73;;;10.40;85.30;;;;;;4924446;28;92428;-92
2021/10/28 07:35:24;;;;;;;40.95;37.30;;;10.50;84.90;;;;;;4941773;28;96311;-91
2021/10/28 08:00:30;;;;;;;23.30;16.23;;;11.40;80.90;;;;;;4910880;28;95731;-92
2021/10/28 08:19:51;;;;;;;25.25;17.73;;;11.20;81.40;;;;;;4925816;28;98428;-92
2021/10/28 08:22:33;;;;;;;23.90;16.30;;;11.20;82.00;;;;;;4941106;28;98035;-92
2021/10/28 08:30:20;;;;;;;25.17;17.35;;;11.20;81.60;;;;;;4941124;28;94879;-91
2021/10/28 08:32:47;;;;;;;25.73;17.65;;;11.20;81.80;;;;;;4909828;28;95787;-92
2021/10/28 08:35:36;;;;;;;24.33;17.40;;;11.30;81.90;;;;;;4927604;28;92389;-92
2021/10/28 08:38:05;;;;;;;23.52;16.52;;;11.30;82.50;;;;;;4910264;28;91820;-91
2021/10/28 08:40:32;;;;;;;23.80;16.63;;;11.30;82.20;;;;;;4959036;28;93267;-92
2021/10/28 08:43:03;;;;;;;24.65;20.13;;;11.40;82.10;;;;;;4941284;28;97818;-92
2021/10/28 08:45:35;;;;;;;22.35;15.98;;;11.40;81.90;;;;;;4939028;28;94809;-92
2021/10/28 08:48:05;;;;;;;24.23;17.42;;;11.50;82.00;;;;;;4925889;28;92284;-92
2021/10/28 08:50:38;;;;;;;22.00;16.60;;;11.60;82.10;;;;;;4940763;28;95563;-92
2021/10/28 08:56:03;;;;;;;24.20;21.10;;;11.70;81.80;;;;;;4926080;28;92355;-92
2021/10/28 09:32:03;;;;;;;23.02;17.77;;;12.80;79.60;;;;;;4958656;28;91596;-92
2021/10/28 09:51:58;;;;;;;23.13;18.77;;;13.40;78.30;;;;;;4904525;28;92515;-92
2021/10/28 09:57:47;;;;;;;16.83;13.50;;;13.50;78.00;;;;;;4940143;28;92403;-92
2021/10/28 10:00:16;;;;;;;17.37;13.83;;;13.60;77.70;;;;;;4909804;28;95936;-93
2021/10/28 10:03:31;;;;;;;18.95;15.18;;;13.70;77.40;;;;;;4939970;28;92526;-92
2021/10/28 10:05:32;;;;;;;18.27;12.30;;;13.80;76.90;;;;;;4920392;28;92530;-92
2021/10/28 10:08:00;;;;;;;14.52;12.52;;;13.80;76.70;;;;;;4922511;28;98326;-92
2021/10/28 10:10:29;;;;;;;14.65;12.60;;;13.90;76.80;;;;;;4908570;28;98589;-92
2021/10/28 10:12:57;;;;;;;12.35;10.65;;;14.10;76.60;;;;;;4923629;28;92592;-93
2021/10/28 10:15:25;;;;;;;15.18;12.13;;;14.10;76.30;;;;;;4923697;28;92549;-93
2021/10/28 10:17:59;;;;;;;14.68;12.13;;;14.20;76.00;;;;;;4940104;28;96220;-93
2021/10/28 10:20:41;;;;;;;15.35;11.52;;;14.30;76.00;;;;;;4946854;28;95716;-92
2021/10/28 10:29:04;;;;;;;15.77;10.57;;;14.50;76.00;;;;;;4939018;28;95876;-92
2021/10/28 12:43:25;;;;;;;7.07;5.78;;;17.00;64.90;;;;;;4898848;28;94792;-93
2021/10/28 12:46:09;;;;;;;6.55;5.78;;;17.30;63.60;;;;;;4923489;28;96275;-91
2021/10/28 13:55:54;;;;;;;10.50;7.45;;;17.60;63.10;;;;;;4944180;28;96746;-91
2021/10/28 15:27:42;;;;;;;11.13;8.60;;;17.10;65.50;;;;;;4855680;28;91793;-91
2021/10/28 15:28:03;;;;;;;14.07;9.45;;;16.80;66.90;;;;;;4852208;28;92569;-91
2021/10/28 15:36:01;;;;;;;12.32;9.65;;;16.60;67.70;;;;;;4939978;28;95753;-91
2021/10/28 15:39:15;;;;;;;15.02;9.55;;;16.50;67.70;;;;;;4942840;28;92260;-91
2021/10/28 15:57:08;;;;;;;9.73;8.68;;;16.00;69.00;;;;;;4942438;28;96079;-90
2021/10/28 16:21:55;;;;;;;10.90;7.75;;;15.20;70.70;;;;;;4929115;28;92732;-91
2021/10/28 16:24:27;;;;;;;11.07;8.18;;;15.20;70.80;;;;;;4943224;28;92175;-93
2021/10/28 16:26:55;;;;;;;11.18;8.75;;;15.20;71.00;;;;;;4942376;28;96143;-90
2021/10/28 16:29:23;;;;;;;14.45;8.57;;;15.10;71.80;;;;;;4942206;28;103227;-91
2021/10/28 16:31:51;;;;;;;13.90;8.50;;;15.00;71.30;;;;;;4926789;28;92574;-90
2021/10/28 16:34:23;;;;;;;10.05;8.13;;;14.90;71.30;;;;;;4927177;28;92467;-90
2021/10/28 16:36:51;;;;;;;9.35;8.07;;;14.90;71.40;;;;;;4908845;28;97921;-90
2021/10/28 16:39:18;;;;;;;12.27;9.38;;;14.80;71.70;;;;;;4910151;28;97949;-90
2021/10/28 16:41:48;;;;;;;9.73;8.38;;;14.80;72.00;;;;;;4926063;28;92268;-90
2021/10/28 16:44:16;;;;;;;10.25;9.15;;;14.80;72.00;;;;;;4942298;28;92430;-90
2021/10/28 16:46:45;;;;;;;12.65;9.38;;;14.70;72.40;;;;;;4926380;28;94390;-91
2021/10/28 16:49:13;;;;;;;10.80;9.10;;;14.60;72.50;;;;;;4925678;28;94292;-90
2021/10/28 16:51:41;;;;;;;12.40;9.45;;;14.60;72.40;;;;;;4925816;28;92322;-91
2021/10/28 16:54:09;;;;;;;10.57;8.70;;;14.50;72.80;;;;;;4942501;28;91808;-90
2021/10/28 16:56:36;;;;;;;11.02;9.30;;;14.50;73.00;;;;;;4925846;28;96094;-91
2021/10/28 16:59:04;;;;;;;11.23;9.00;;;14.50;73.00;;;;;;4925176;28;94459;-91
2021/10/28 17:01:31;;;;;;;12.48;9.45;;;14.40;73.20;;;;;;4940924;28;94875;-91
2021/10/28 17:07:37;;;;;;;13.60;11.70;;;14.30;73.40;;;;;;4940137;28;95693;-91
2021/10/28 17:10:05;;;;;;;19.30;17.55;;;14.20;73.70;;;;;;4923557;28;95949;-91
2021/10/28 17:12:34;;;;;;;24.55;22.17;;;14.20;73.60;;;;;;4924715;28;92562;-90
2021/10/28 17:15:01;;;;;;;29.35;26.83;;;14.20;73.70;;;;;;4924843;28;92483;-91
2021/10/28 17:17:29;;;;;;;25.27;23.08;;;14.10;73.60;;;;;;4924776;28;95691;-91
2021/10/28 17:20:02;;;;;;;28.00;22.08;;;14.10;73.60;;;;;;4909086;28;95517;-91
2021/10/28 17:22:29;;;;;;;26.00;23.75;;;14.10;74.30;;;;;;4940828;28;92660;-91
2021/10/28 17:24:58;;;;;;;13.75;12.35;;;14.00;73.70;;;;;;4940581;28;92539;-91
2021/10/28 17:27:26;;;;;;;23.77;21.83;;;14.00;73.90;;;;;;4938772;28;101380;-91
2021/10/28 17:29:53;;;;;;;11.40;10.23;;;13.90;73.50;;;;;;4940963;28;95951;-91
2021/10/28 17:32:20;;;;;;;12.13;10.77;;;13.90;73.60;;;;;;4940387;28;92508;-91
2021/10/28 17:34:47;;;;;;;14.70;13.27;;;13.90;73.70;;;;;;4924411;28;92547;-92
2021/10/28 17:37:15;;;;;;;15.65;10.40;;;13.80;73.30;;;;;;4923351;28;96280;-92
2021/10/28 17:39:43;;;;;;;11.45;10.25;;;13.80;73.50;;;;;;4940029;28;95553;-91
2021/10/28 17:42:10;;;;;;;9.13;8.23;;;13.80;72.90;;;;;;4938923;28;92538;-91
2021/10/28 17:44:42;;;;;;;9.85;8.85;;;13.80;73.10;;;;;;4925146;28;91783;-91
2021/10/28 17:47:09;;;;;;;10.55;8.30;;;13.80;73.30;;;;;;4940796;28;95791;-92
2021/10/28 17:49:37;;;;;;;9.30;7.80;;;13.80;73.40;;;;;;4924293;28;101645;-92
2021/10/28 17:52:19;;;;;;;10.43;7.97;;;13.70;73.00;;;;;;4925825;28;95476;-92
2021/10/28 17:54:48;;;;;;;10.13;8.52;;;13.70;73.00;;;;;;4924771;28;92805;-96
2021/10/28 17:57:18;;;;;;;10.90;8.65;;;13.70;72.90;;;;;;4941085;28;94781;-92
2021/10/28 17:59:45;;;;;;;10.27;9.18;;;13.60;72.90;;;;;;4923827;28;95583;-92
2021/10/28 18:02:13;;;;;;;10.23;9.25;;;13.60;72.90;;;;;;4940533;28;92522;-92
2021/10/28 18:04:42;;;;;;;12.35;10.88;;;13.50;72.90;;;;;;4909378;28;94845;-92
2021/10/28 18:07:09;;;;;;;14.32;10.98;;;13.60;73.30;;;;;;4923162;28;95849;-92
2021/10/28 18:09:37;;;;;;;12.70;9.35;;;13.50;73.20;;;;;;4940637;28;95942;-92
2021/10/28 18:12:05;;;;;;;12.55;10.00;;;13.40;73.30;;;;;;4925573;28;92529;-92
2021/10/28 18:14:32;;;;;;;12.18;10.13;;;13.40;73.30;;;;;;4908156;28;92508;-92
2021/10/28 18:16:59;;;;;;;12.07;9.93;;;13.40;73.70;;;;;;4906556;28;111415;-92
2021/10/28 18:19:29;;;;;;;13.30;10.15;;;13.30;73.90;;;;;;4896038;28;98463;-92
2021/10/28 18:21:56;;;;;;;13.18;11.10;;;13.30;73.80;;;;;;4939991;28;92340;-92
2021/10/28 18:24:25;;;;;;;11.45;9.85;;;13.20;74.20;;;;;;4939451;28;92228;-92
2021/10/28 18:26:53;;;;;;;9.45;8.52;;;13.20;74.00;;;;;;4939854;28;93863;-92
2021/10/28 18:29:21;;;;;;;12.75;9.27;;;13.20;74.20;;;;;;4908440;28;95717;-92
2021/10/28 18:31:48;;;;;;;10.18;9.15;;;13.10;74.20;;;;;;4956133;28;92435;-92
2021/10/28 18:34:15;;;;;;;10.02;9.13;;;13.10;74.20;;;;;;4940491;28;91835;-92
2021/10/28 18:36:44;;;;;;;11.02;8.88;;;13.10;74.60;;;;;;4940394;28;93562;-91
2021/10/28 18:39:13;;;;;;;11.32;9.20;;;13.00;75.00;;;;;;4924559;28;95442;-92
2021/10/28 18:41:42;;;;;;;9.80;8.85;;;13.00;74.70;;;;;;4938809;28;94811;-92
2021/10/28 18:44:10;;;;;;;9.40;8.40;;;13.00;74.70;;;;;;4923932;28;92533;-92
2021/10/28 18:46:38;;;;;;;10.93;8.82;;;12.90;74.60;;;;;;4907896;28;95607;-91
2021/10/28 18:49:07;;;;;;;12.73;9.07;;;12.90;74.60;;;;;;4907874;28;95807;-92
2021/10/28 18:51:36;;;;;;;9.40;8.45;;;12.90;74.60;;;;;;4924170;28;92394;-92
2021/10/28 18:54:04;;;;;;;10.60;8.52;;;12.80;74.80;;;;;;4923971;28;92564;-92
2021/10/28 18:56:32;;;;;;;9.60;8.02;;;12.80;74.60;;;;;;4924012;28;95589;-92
2021/10/28 18:58:59;;;;;;;10.27;9.27;;;12.80;74.80;;;;;;4939907;28;94993;-92
2021/10/28 19:01:28;;;;;;;13.07;10.25;;;12.80;74.60;;;;;;4939985;28;92450;-92
2021/10/28 19:04:02;;;;;;;10.95;9.23;;;12.70;74.50;;;;;;4908362;28;92435;-93
2021/10/28 19:06:29;;;;;;;9.75;8.77;;;12.70;74.70;;;;;;4922733;28;98123;-92
2021/10/28 19:08:56;;;;;;;10.23;8.23;;;12.60;74.80;;;;;;4939415;28;102371;-92
2021/10/28 19:11:26;;;;;;;9.77;8.50;;;12.60;74.80;;;;;;4957531;28;92433;-92
2021/10/28 19:13:54;;;;;;;10.95;9.32;;;12.60;74.80;;;;;;4908855;28;92531;-92
2021/10/28 19:16:22;;;;;;;35.97;29.05;;;12.60;75.10;;;;;;4924248;28;94873;-92
2021/10/28 19:19:22;;;;;;;18.40;16.67;;;12.60;75.50;;;;;;4925055;28;95799;-92
2021/10/28 19:21:49;;;;;;;14.52;13.00;;;12.60;74.70;;;;;;4937559;28;92411;-92
2021/10/28 19:24:16;;;;;;;12.90;10.73;;;12.50;75.20;;;;;;4910960;28;91814;-93
2021/10/28 19:30:33;;;;;;;13.07;11.73;;;12.50;75.10;;;;;;4947338;28;95555;-92
2021/10/28 19:33:23;;;;;;;10.93;9.35;;;12.40;75.40;;;;;;4924852;28;94650;-93
2021/10/28 19:35:54;;;;;;;17.23;15.48;;;12.40;75.60;;;;;;4926904;28;92469;-93
2021/10/28 19:46:40;;;;;;;11.40;10.30;;;12.30;75.50;;;;;;4930654;28;92400;-93
2021/10/28 19:49:08;;;;;;;12.27;10.98;;;12.30;75.60;;;;;;4906418;28;95170;-91
2021/10/28 19:51:35;;;;;;;11.18;8.57;;;12.30;75.50;;;;;;4934978;28;94926;-93
2021/10/28 19:54:03;;;;;;;11.93;9.93;;;12.20;76.00;;;;;;4943517;28;92446;-92
2021/10/28 19:56:30;;;;;;;10.23;8.73;;;12.30;75.80;;;;;;4927089;28;92593;-93
2021/10/28 19:59:01;;;;;;;12.15;9.98;;;12.20;75.60;;;;;;4926073;28;98449;-93
2021/10/28 20:01:50;;;;;;;12.35;9.50;;;12.20;75.50;;;;;;4912166;28;97812;-93
2021/10/28 20:20:27;;;;;;;14.13;10.48;;;12.10;77.10;;;;;;4926447;28;92426;-93
2021/10/28 20:22:55;;;;;;;12.73;10.15;;;12.00;76.70;;;;;;4892014;28;95841;-92
2021/10/28 20:25:25;;;;;;;12.43;10.20;;;12.00;76.60;;;;;;4905449;28;94935;-93
2021/10/28 20:27:54;;;;;;;13.68;11.00;;;12.00;77.10;;;;;;4922614;28;92373;-92
2021/10/28 20:30:30;;;;;;;13.60;11.18;;;11.90;77.00;;;;;;4905911;28;96063;-92
2021/10/28 20:32:58;;;;;;;12.43;10.57;;;11.90;77.10;;;;;;4907329;28;96098;-92
2021/10/28 20:37:53;;;;;;;73.68;41.55;;;11.90;77.10;;;;;;4906421;28;92435;-93
2021/10/28 20:40:21;;;;;;;205.27;96.90;;;11.90;77.30;;;;;;4906820;28;98488;-92
2021/10/28 20:42:49;;;;;;;88.82;55.22;;;11.90;78.00;;;;;;4942047;28;95489;-93
2021/10/28 20:45:26;;;;;;;45.88;28.95;;;11.80;77.70;;;;;;4926930;28;92409;-93
2021/10/28 20:47:53;;;;;;;165.75;102.20;;;11.90;77.40;;;;;;4941619;28;92498;-92
2021/10/28 20:50:23;;;;;;;50.30;37.65;;;11.80;78.00;;;;;;4908146;28;98734;-92
2021/10/28 20:52:51;;;;;;;119.38;94.65;;;11.80;77.90;;;;;;4941531;28;99735;-92
2021/10/28 20:55:18;;;;;;;36.33;32.50;;;11.80;77.70;;;;;;4909596;28;101068;-92
2021/10/28 20:57:48;;;;;;;21.58;19.45;;;11.80;77.60;;;;;;4925246;28;92473;-92
2021/10/28 21:00:18;;;;;;;16.98;15.18;;;11.80;77.80;;;;;;4941490;28;96310;-92
2021/10/28 21:02:45;;;;;;;18.00;16.40;;;11.80;77.90;;;;;;4941647;28;94290;-92
2021/10/28 21:05:21;;;;;;;19.48;17.33;;;11.80;78.20;;;;;;4959416;28;92507;-92
2021/10/28 21:07:51;;;;;;;16.48;14.65;;;11.70;78.20;;;;;;4956809;28;91744;-92
2021/10/28 21:10:25;;;;;;;15.30;12.68;;;11.70;78.30;;;;;;4940042;28;95586;-92
2021/10/28 21:12:56;;;;;;;17.15;13.90;;;11.70;78.40;;;;;;4924326;28;95804;-92
2021/10/28 21:15:25;;;;;;;16.30;12.48;;;11.60;78.20;;;;;;4907143;28;94782;-92
2021/10/28 21:17:53;;;;;;;18.02;14.13;;;11.60;78.40;;;;;;4924110;28;92519;-93
2021/10/28 21:20:22;;;;;;;16.98;14.57;;;11.60;78.90;;;;;;4940072;28;95543;-92
2021/10/28 21:22:49;;;;;;;16.10;13.95;;;11.50;78.80;;;;;;4956531;28;96077;-93
2021/10/28 21:25:16;;;;;;;16.48;13.60;;;11.50;79.30;;;;;;4924204;28;92379;-92
2021/10/28 21:27:44;;;;;;;14.65;12.93;;;11.50;79.20;;;;;;4940355;28;92436;-93
2021/10/28 21:30:31;;;;;;;20.38;14.60;;;11.50;79.00;;;;;;4926562;28;95816;-93
2021/10/28 21:32:59;;;;;;;17.10;14.55;;;11.50;79.00;;;;;;4924369;28;95893;-93
2021/10/28 21:35:26;;;;;;;20.85;14.23;;;11.40;79.50;;;;;;4956337;28;92389;-93
2021/10/28 21:37:54;;;;;;;20.77;14.82;;;11.40;79.90;;;;;;4907932;28;92519;-92
2021/10/28 21:40:21;;;;;;;20.30;14.45;;;11.40;79.40;;;;;;4938957;28;98806;-92
2021/10/28 21:42:48;;;;;;;17.88;14.15;;;11.40;79.30;;;;;;4939807;28;97816;-92
2021/10/28 21:45:16;;;;;;;22.95;15.20;;;11.40;79.50;;;;;;4908283;28;92485;-93
2021/10/28 21:47:47;;;;;;;18.30;13.93;;;11.30;79.60;;;;;;4940255;28;92628;-92
2021/10/28 21:50:15;;;;;;;20.05;15.05;;;11.30;79.90;;;;;;4940019;28;96026;-93
2021/10/28 21:52:47;;;;;;;21.52;16.13;;;11.20;80.00;;;;;;4923899;28;95236;-93
2021/10/28 22:25:09;;;;;;;24.02;18.42;;;11.00;81.10;;;;;;4917116;28;96183;-92
2021/10/28 22:27:36;;;;;;;26.15;18.90;;;11.00;81.00;;;;;;4923197;28;92579;-92
2021/10/28 22:30:07;;;;;;;22.10;17.30;;;11.00;81.20;;;;;;4956006;28;92558;-92
2021/10/28 22:32:44;;;;;;;24.20;18.38;;;11.00;81.10;;;;;;4954821;28;95819;-92
2021/10/28 22:35:14;;;;;;;25.95;19.27;;;10.90;81.50;;;;;;4923644;28;97763;-92
2021/10/28 22:37:59;;;;;;;24.75;18.50;;;10.90;81.10;;;;;;4923670;28;92481;-93
2021/10/28 22:43:10;;;;;;;27.48;19.02;;;10.90;81.30;;;;;;4924485;28;96008;-92
2021/10/28 22:45:40;;;;;;;26.02;18.77;;;10.90;81.50;;;;;;4923363;28;96085;-92
2021/10/28 22:48:12;;;;;;;22.27;17.40;;;10.80;81.40;;;;;;4939241;28;92511;-92
2021/10/28 22:50:41;;;;;;;23.55;18.45;;;10.80;81.40;;;;;;4957614;28;91659;-92
2021/10/28 22:53:09;;;;;;;24.95;19.50;;;10.70;81.80;;;;;;4939534;28;96171;-93
2021/10/28 22:55:43;;;;;;;25.05;18.98;;;10.70;81.60;;;;;;4938848;28;104527;-93
2021/10/28 23:11:47;;;;;;;23.88;17.75;;;10.60;82.30;;;;;;4928385;28;92507;-92